sensor_id;sensor_type;location;lat;lon;timestamp;pressure;altitude;pressure_sealevel;temperature;humidity
64095;BME280;50353;51.420;5.682;2023-10-31T00:00:08;99423.44;;;10.80;100.00
64095;BME280;50353;51.420;5.682;2023-10-31T00:02:34;99432.31;;;11.00;100.00
64095;BME280;50353;51.420;5.682;2023-10-31T00:04:59;99437.56;;;10.58;100.00
64095;BME280;50353;51.420;5.682;2023-10-31T00:07:25;99431.94;;;10.62;100.00
64095;BME280;50353;51.420;5.682;2023-10-31T00:09:50;99437.78;;;10.66;100.00
64095;BME280;50353;51.420;5.682;2023-10-31T00:12:15;99445.00;;;10.64;100.00
64095;BME280;50353;51.420;5.682;2023-10-31T00:14:41;99437.69;;;10.68;100.00
64095;BME280;50353;51.420;5.682;2023-10-31T00:17:06;99457.41;;;10.85;100.00
64095;BME280;50353;51.420;5.682;2023-10-31T00:19:31;99455.91;;;10.92;100.00
64095;BME280;50353;51.420;5.682;2023-10-31T00:21:56;99448.34;;;10.66;100.00
64095;BME280;50353;51.420;5.682;2023-10-31T00:24:22;99454.28;;;10.79;100.00
64095;BME280;50353;51.420;5.682;2023-10-31T00:26:47;99462.75;;;10.73;100.00
64095;BME280;50353;51.420;5.682;2023-10-31T00:29:12;99468.19;;;10.60;100.00
64095;BME280;50353;51.420;5.682;2023-10-31T00:31:38;99467.97;;;10.63;100.00
64095;BME280;50353;51.420;5.682;2023-10-31T00:34:06;99466.16;;;10.64;100.00
64095;BME280;50353;51.420;5.682;2023-10-31T00:36:32;99469.31;;;10.79;100.00
64095;BME280;50353;51.420;5.682;2023-10-31T00:38:57;99473.94;;;10.65;100.00
64095;BME280;50353;51.420;5.682;2023-10-31T00:41:23;99471.19;;;10.67;100.00
64095;BME280;50353;51.420;5.682;2023-10-31T00:43:48;99472.53;;;10.61;100.00
64095;BME280;50353;51.420;5.682;2023-10-31T00:46:13;99480.53;;;10.71;100.00
64095;BME280;50353;51.420;5.682;2023-10-31T00:48:39;99488.09;;;10.76;100.00
64095;BME280;50353;51.420;5.682;2023-10-31T00:51:04;99477.47;;;10.55;100.00
64095;BME280;50353;51.420;5.682;2023-10-31T00:53:30;99487.16;;;10.65;100.00
64095;BME280;50353;51.420;5.682;2023-10-31T00:55:55;99485.03;;;10.59;100.00
64095;BME280;50353;51.420;5.682;2023-10-31T00:58:20;99484.19;;;10.59;100.00
64095;BME280;50353;51.420;5.682;2023-10-31T01:00:46;99490.31;;;10.59;100.00
64095;BME280;50353;51.420;5.682;2023-10-31T01:03:11;99494.34;;;10.42;100.00
64095;BME280;50353;51.420;5.682;2023-10-31T01:05:36;99495.72;;;10.58;100.00
64095;BME280;50353;51.420;5.682;2023-10-31T01:08:02;99498.28;;;10.48;100.00
64095;BME280;50353;51.420;5.682;2023-10-31T01:10:27;99499.56;;;10.65;100.00
64095;BME280;50353;51.420;5.682;2023-10-31T01:12:52;99504.41;;;10.48;100.00
64095;BME280;50353;51.420;5.682;2023-10-31T01:15:17;99505.63;;;10.44;100.00
64095;BME280;50353;51.420;5.682;2023-10-31T01:17:43;99508.91;;;10.69;100.00
64095;BME280;50353;51.420;5.682;2023-10-31T01:20:08;99513.13;;;10.60;100.00
64095;BME280;50353;51.420;5.682;2023-10-31T01:22:35;99523.13;;;10.57;100.00
64095;BME280;50353;51.420;5.682;2023-10-31T01:25:01;99516.63;;;10.61;100.00
64095;BME280;50353;51.420;5.682;2023-10-31T01:27:26;99521.84;;;10.72;100.00
64095;BME280;50353;51.420;5.682;2023-10-31T01:29:51;99520.59;;;10.55;100.00
64095;BME280;50353;51.420;5.682;2023-10-31T01:32:16;99509.09;;;10.77;100.00
64095;BME280;50353;51.420;5.682;2023-10-31T01:34:43;99516.84;;;10.69;100.00
64095;BME280;50353;51.420;5.682;2023-10-31T01:37:08;99519.50;;;10.58;100.00
64095;BME280;50353;51.420;5.682;2023-10-31T01:39:36;99526.34;;;10.60;100.00
64095;BME280;50353;51.420;5.682;2023-10-31T01:42:01;99534.91;;;10.53;100.00
64095;BME280;50353;51.420;5.682;2023-10-31T01:44:26;99522.78;;;10.82;100.00
64095;BME280;50353;51.420;5.682;2023-10-31T01:46:51;99520.25;;;10.81;100.00
64095;BME280;50353;51.420;5.682;2023-10-31T01:49:17;99534.81;;;10.75;100.00
64095;BME280;50353;51.420;5.682;2023-10-31T01:51:42;99524.00;;;10.78;100.00
64095;BME280;50353;51.420;5.682;2023-10-31T01:54:09;99528.50;;;10.67;100.00
64095;BME280;50353;51.420;5.682;2023-10-31T01:56:35;99542.88;;;10.74;100.00
64095;BME280;50353;51.420;5.682;2023-10-31T01:59:01;99531.41;;;10.85;100.00
64095;BME280;50353;51.420;5.682;2023-10-31T02:01:27;99536.03;;;10.71;100.00
64095;BME280;50353;51.420;5.682;2023-10-31T02:03:53;99537.88;;;10.92;100.00
64095;BME280;50353;51.420;5.682;2023-10-31T02:06:19;99539.28;;;10.75;100.00
64095;BME280;50353;51.420;5.682;2023-10-31T02:08:44;99531.41;;;10.85;100.00
64095;BME280;50353;51.420;5.682;2023-10-31T02:11:11;99532.34;;;10.62;100.00
64095;BME280;50353;51.420;5.682;2023-10-31T02:13:37;99534.88;;;10.64;100.00
64095;BME280;50353;51.420;5.682;2023-10-31T02:16:03;99526.38;;;10.81;100.00
64095;BME280;50353;51.420;5.682;2023-10-31T02:18:28;99537.78;;;10.82;100.00
64095;BME280;50353;51.420;5.682;2023-10-31T02:20:54;99534.69;;;10.77;100.00
64095;BME280;50353;51.420;5.682;2023-10-31T02:23:19;99525.38;;;10.94;100.00
64095;BME280;50353;51.420;5.682;2023-10-31T02:25:44;99535.69;;;10.64;100.00
64095;BME280;50353;51.420;5.682;2023-10-31T02:28:10;99526.34;;;10.93;100.00
64095;BME280;50353;51.420;5.682;2023-10-31T02:30:35;99531.59;;;10.72;100.00
64095;BME280;50353;51.420;5.682;2023-10-31T02:33:01;99535.19;;;10.71;100.00
64095;BME280;50353;51.420;5.682;2023-10-31T02:35:27;99530.25;;;10.77;100.00
64095;BME280;50353;51.420;5.682;2023-10-31T02:37:52;99536.03;;;10.71;100.00
64095;BME280;50353;51.420;5.682;2023-10-31T02:40:18;99545.50;;;10.74;100.00
64095;BME280;50353;51.420;5.682;2023-10-31T02:42:43;99544.84;;;10.93;100.00
64095;BME280;50353;51.420;5.682;2023-10-31T02:45:09;99544.84;;;10.93;100.00
64095;BME280;50353;51.420;5.682;2023-10-31T02:47:35;99543.50;;;10.98;100.00
64095;BME280;50353;51.420;5.682;2023-10-31T02:50:00;99542.75;;;10.75;100.00
64095;BME280;50353;51.420;5.682;2023-10-31T02:52:25;99551.75;;;10.73;100.00
64095;BME280;50353;51.420;5.682;2023-10-31T02:54:51;99547.00;;;10.88;100.00
64095;BME280;50353;51.420;5.682;2023-10-31T02:57:16;99545.03;;;10.80;100.00
64095;BME280;50353;51.420;5.682;2023-10-31T02:59:42;99549.22;;;10.82;100.00
64095;BME280;50353;51.420;5.682;2023-10-31T03:02:07;99553.09;;;10.99;100.00
64095;BME280;50353;51.420;5.682;2023-10-31T03:04:32;99557.03;;;10.73;100.00
64095;BME280;50353;51.420;5.682;2023-10-31T03:06:57;99561.31;;;10.85;100.00
64095;BME280;50353;51.420;5.682;2023-10-31T03:09:23;99558.31;;;10.90;100.00
64095;BME280;50353;51.420;5.682;2023-10-31T03:11:48;99560.50;;;10.85;100.00
64095;BME280;50353;51.420;5.682;2023-10-31T03:14:13;99568.16;;;10.99;100.00
64095;BME280;50353;51.420;5.682;2023-10-31T03:16:39;99566.66;;;10.74;100.00
64095;BME280;50353;51.420;5.682;2023-10-31T03:19:04;99556.84;;;10.64;100.00
64095;BME280;50353;51.420;5.682;2023-10-31T03:21:30;99562.31;;;10.84;100.00
64095;BME280;50353;51.420;5.682;2023-10-31T03:23:55;99565.34;;;10.68;100.00
64095;BME280;50353;51.420;5.682;2023-10-31T03:26:21;99562.44;;;10.82;100.00
64095;BME280;50353;51.420;5.682;2023-10-31T03:28:47;99571.91;;;10.85;100.00
64095;BME280;50353;51.420;5.682;2023-10-31T03:31:13;99570.38;;;10.82;100.00
64095;BME280;50353;51.420;5.682;2023-10-31T03:33:38;99578.84;;;10.65;100.00
64095;BME280;50353;51.420;5.682;2023-10-31T03:36:04;99583.72;;;10.70;100.00
64095;BME280;50353;51.420;5.682;2023-10-31T03:38:33;99579.00;;;10.85;100.00
64095;BME280;50353;51.420;5.682;2023-10-31T03:40:59;99581.69;;;10.73;100.00
64095;BME280;50353;51.420;5.682;2023-10-31T03:43:24;99587.22;;;11.03;100.00
64095;BME280;50353;51.420;5.682;2023-10-31T03:45:49;99592.47;;;10.81;100.00
64095;BME280;50353;51.420;5.682;2023-10-31T03:48:15;99587.75;;;10.85;100.00
64095;BME280;50353;51.420;5.682;2023-10-31T03:50:41;99593.16;;;10.95;100.00
64095;BME280;50353;51.420;5.682;2023-10-31T03:53:07;99604.47;;;10.86;100.00
64095;BME280;50353;51.420;5.682;2023-10-31T03:55:33;99605.06;;;10.89;100.00
64095;BME280;50353;51.420;5.682;2023-10-31T03:57:58;99600.41;;;10.70;100.00
64095;BME280;50353;51.420;5.682;2023-10-31T04:00:23;99604.03;;;10.69;100.00
64095;BME280;50353;51.420;5.682;2023-10-31T04:02:49;99614.13;;;10.64;100.00
64095;BME280;50353;51.420;5.682;2023-10-31T04:05:14;99614.63;;;10.69;100.00
64095;BME280;50353;51.420;5.682;2023-10-31T04:07:39;99628.81;;;10.57;100.00
64095;BME280;50353;51.420;5.682;2023-10-31T04:10:05;99633.13;;;10.69;100.00
64095;BME280;50353;51.420;5.682;2023-10-31T04:12:31;99631.41;;;10.79;100.00
64095;BME280;50353;51.420;5.682;2023-10-31T04:14:57;99634.44;;;10.75;100.00
64095;BME280;50353;51.420;5.682;2023-10-31T04:17:22;99637.66;;;10.78;100.00
64095;BME280;50353;51.420;5.682;2023-10-31T04:19:47;99636.34;;;10.84;100.00
64095;BME280;50353;51.420;5.682;2023-10-31T04:22:12;99637.38;;;10.93;100.00
64095;BME280;50353;51.420;5.682;2023-10-31T04:24:38;99632.25;;;10.69;100.00
64095;BME280;50353;51.420;5.682;2023-10-31T04:27:03;99646.22;;;10.71;100.00
64095;BME280;50353;51.420;5.682;2023-10-31T04:29:28;99647.41;;;10.67;100.00
64095;BME280;50353;51.420;5.682;2023-10-31T04:31:54;99639.19;;;10.81;100.00
64095;BME280;50353;51.420;5.682;2023-10-31T04:34:19;99647.63;;;10.75;100.00
64095;BME280;50353;51.420;5.682;2023-10-31T04:36:44;99653.75;;;10.75;100.00
64095;BME280;50353;51.420;5.682;2023-10-31T04:39:10;99653.03;;;10.85;100.00
64095;BME280;50353;51.420;5.682;2023-10-31T04:41:35;99659.41;;;10.71;100.00
64095;BME280;50353;51.420;5.682;2023-10-31T04:44:00;99654.34;;;10.79;100.00
64095;BME280;50353;51.420;5.682;2023-10-31T04:46:26;99662.75;;;10.73;100.00
64095;BME280;50353;51.420;5.682;2023-10-31T04:48:53;99662.44;;;10.55;100.00
64095;BME280;50353;51.420;5.682;2023-10-31T04:51:19;99671.16;;;10.78;100.00
64095;BME280;50353;51.420;5.682;2023-10-31T04:53:44;99668.69;;;10.65;100.00
64095;BME280;50353;51.420;5.682;2023-10-31T04:56:13;99678.13;;;10.90;100.00
64095;BME280;50353;51.420;5.682;2023-10-31T04:58:39;99680.22;;;10.64;100.00
64095;BME280;50353;51.420;5.682;2023-10-31T05:01:12;99685.75;;;10.61;100.00
64095;BME280;50353;51.420;5.682;2023-10-31T05:03:37;99680.34;;;10.62;100.00
64095;BME280;50353;51.420;5.682;2023-10-31T05:06:04;99691.25;;;10.69;100.00
64095;BME280;50353;51.420;5.682;2023-10-31T05:08:30;99704.72;;;10.77;100.00
64095;BME280;50353;51.420;5.682;2023-10-31T05:10:55;99702.81;;;10.57;100.00
64095;BME280;50353;51.420;5.682;2023-10-31T05:13:21;99699.78;;;10.73;100.00
64095;BME280;50353;51.420;5.682;2023-10-31T05:15:46;99708.44;;;10.52;100.00
64095;BME280;50353;51.420;5.682;2023-10-31T05:18:11;99712.63;;;10.55;100.00
64095;BME280;50353;51.420;5.682;2023-10-31T05:20:37;99721.41;;;10.44;100.00
64095;BME280;50353;51.420;5.682;2023-10-31T05:23:02;99709.75;;;10.35;100.00
64095;BME280;50353;51.420;5.682;2023-10-31T05:25:28;99707.72;;;10.50;100.00
64095;BME280;50353;51.420;5.682;2023-10-31T05:27:53;99712.88;;;10.52;100.00
64095;BME280;50353;51.420;5.682;2023-10-31T05:30:18;99710.97;;;10.42;100.00
64095;BME280;50353;51.420;5.682;2023-10-31T05:32:44;99714.56;;;10.41;100.00
64095;BME280;50353;51.420;5.682;2023-10-31T05:35:10;99713.97;;;10.49;100.00
64095;BME280;50353;51.420;5.682;2023-10-31T05:37:35;99715.66;;;10.61;100.00
64095;BME280;50353;51.420;5.682;2023-10-31T05:40:00;99719.38;;;10.47;100.00
64095;BME280;50353;51.420;5.682;2023-10-31T05:42:26;99721.78;;;10.39;100.00
64095;BME280;50353;51.420;5.682;2023-10-31T05:44:52;99731.72;;;10.36;100.00
64095;BME280;50353;51.420;5.682;2023-10-31T05:47:18;99724.41;;;10.51;100.00
64095;BME280;50353;51.420;5.682;2023-10-31T05:49:44;99731.00;;;10.45;100.00
64095;BME280;50353;51.420;5.682;2023-10-31T05:52:09;99732.06;;;10.31;100.00
64095;BME280;50353;51.420;5.682;2023-10-31T05:54:35;99733.63;;;10.34;100.00
64095;BME280;50353;51.420;5.682;2023-10-31T05:57:00;99736.06;;;10.37;100.00
64095;BME280;50353;51.420;5.682;2023-10-31T05:59:25;99736.66;;;10.40;100.00
64095;BME280;50353;51.420;5.682;2023-10-31T06:01:51;99737.75;;;10.38;100.00
64095;BME280;50353;51.420;5.682;2023-10-31T06:04:16;99740.69;;;10.22;100.00
64095;BME280;50353;51.420;5.682;2023-10-31T06:06:41;99740.25;;;10.39;100.00
64095;BME280;50353;51.420;5.682;2023-10-31T06:09:07;99737.63;;;10.39;100.00
64095;BME280;50353;51.420;5.682;2023-10-31T06:11:32;99739.41;;;10.39;100.00
64095;BME280;50353;51.420;5.682;2023-10-31T06:13:59;99749.03;;;10.40;100.00
64095;BME280;50353;51.420;5.682;2023-10-31T06:16:24;99748.31;;;10.49;100.00
64095;BME280;50353;51.420;5.682;2023-10-31T06:18:49;99753.72;;;10.47;100.00
64095;BME280;50353;51.420;5.682;2023-10-31T06:21:15;99756.69;;;10.43;100.00
64095;BME280;50353;51.420;5.682;2023-10-31T06:23:40;99764.16;;;10.38;100.00
64095;BME280;50353;51.420;5.682;2023-10-31T06:26:07;99765.53;;;10.19;100.00
64095;BME280;50353;51.420;5.682;2023-10-31T06:28:33;99771.88;;;10.17;100.00
64095;BME280;50353;51.420;5.682;2023-10-31T06:31:00;99781.09;;;10.00;100.00
64095;BME280;50353;51.420;5.682;2023-10-31T06:33:26;99783.19;;;10.19;100.00
64095;BME280;50353;51.420;5.682;2023-10-31T06:35:52;99781.34;;;10.43;100.00
64095;BME280;50353;51.420;5.682;2023-10-31T06:38:19;99788.59;;;10.28;100.00
64095;BME280;50353;51.420;5.682;2023-10-31T06:40:44;99783.19;;;10.19;100.00
64095;BME280;50353;51.420;5.682;2023-10-31T06:43:09;99790.63;;;10.25;100.00
64095;BME280;50353;51.420;5.682;2023-10-31T06:45:35;99789.28;;;10.19;100.00
64095;BME280;50353;51.420;5.682;2023-10-31T06:48:00;99798.31;;;10.28;100.00
64095;BME280;50353;51.420;5.682;2023-10-31T06:50:25;99796.44;;;10.41;100.00
64095;BME280;50353;51.420;5.682;2023-10-31T06:52:51;99808.22;;;10.37;100.00
64095;BME280;50353;51.420;5.682;2023-10-31T06:55:16;99796.25;;;10.20;100.00
64095;BME280;50353;51.420;5.682;2023-10-31T06:57:41;99805.50;;;10.26;100.00
64095;BME280;50353;51.420;5.682;2023-10-31T07:00:08;99812.22;;;10.19;100.00
64095;BME280;50353;51.420;5.682;2023-10-31T07:02:34;99810.94;;;10.00;100.00
64095;BME280;50353;51.420;5.682;2023-10-31T07:05:00;99818.19;;;10.09;100.00
64095;BME280;50353;51.420;5.682;2023-10-31T07:07:25;99817.78;;;10.27;100.00
64095;BME280;50353;51.420;5.682;2023-10-31T07:09:50;99826.81;;;10.11;100.00
64095;BME280;50353;51.420;5.682;2023-10-31T07:12:16;99821.81;;;10.20;100.00
64095;BME280;50353;51.420;5.682;2023-10-31T07:14:41;99816.69;;;10.29;100.00
64095;BME280;50353;51.420;5.682;2023-10-31T07:17:06;99821.13;;;10.29;100.00
64095;BME280;50353;51.420;5.682;2023-10-31T07:19:32;99826.34;;;10.06;100.00
64095;BME280;50353;51.420;5.682;2023-10-31T07:21:57;99829.13;;;10.16;100.00
64095;BME280;50353;51.420;5.682;2023-10-31T07:24:22;99825.06;;;10.23;100.00
64095;BME280;50353;51.420;5.682;2023-10-31T07:26:47;99837.44;;;10.23;100.00
64095;BME280;50353;51.420;5.682;2023-10-31T07:29:13;99835.72;;;10.10;100.00
64095;BME280;50353;51.420;5.682;2023-10-31T07:31:38;99835.75;;;10.22;100.00
64095;BME280;50353;51.420;5.682;2023-10-31T07:34:05;99844.31;;;10.01;100.00
64095;BME280;50353;51.420;5.682;2023-10-31T07:36:30;99850.47;;;10.37;100.00
64095;BME280;50353;51.420;5.682;2023-10-31T07:38:57;99842.00;;;10.21;100.00
64095;BME280;50353;51.420;5.682;2023-10-31T07:41:23;99841.03;;;10.22;100.00
64095;BME280;50353;51.420;5.682;2023-10-31T07:43:48;99848.50;;;10.28;100.00
64095;BME280;50353;51.420;5.682;2023-10-31T07:46:14;99852.81;;;10.29;100.00
64095;BME280;50353;51.420;5.682;2023-10-31T07:48:39;99846.69;;;10.17;100.00
64095;BME280;50353;51.420;5.682;2023-10-31T07:51:05;99849.84;;;10.34;100.00
64095;BME280;50353;51.420;5.682;2023-10-31T07:53:30;99847.41;;;10.30;100.00
64095;BME280;50353;51.420;5.682;2023-10-31T07:55:55;99847.63;;;10.40;100.00
64095;BME280;50353;51.420;5.682;2023-10-31T07:58:20;99847.50;;;10.42;100.00
64095;BME280;50353;51.420;5.682;2023-10-31T08:00:46;99853.31;;;10.58;100.00
64095;BME280;50353;51.420;5.682;2023-10-31T08:03:12;99856.22;;;10.67;100.00
64095;BME280;50353;51.420;5.682;2023-10-31T08:05:37;99851.84;;;10.54;100.00
64095;BME280;50353;51.420;5.682;2023-10-31T08:08:02;99858.41;;;10.37;100.00
64095;BME280;50353;51.420;5.682;2023-10-31T08:10:28;99861.19;;;10.47;100.00
64095;BME280;50353;51.420;5.682;2023-10-31T08:12:53;99860.75;;;10.64;100.00
64095;BME280;50353;51.420;5.682;2023-10-31T08:15:18;99859.78;;;10.65;100.00
64095;BME280;50353;51.420;5.682;2023-10-31T08:17:43;99866.16;;;10.63;100.00
64095;BME280;50353;51.420;5.682;2023-10-31T08:20:09;99861.56;;;10.54;100.00
64095;BME280;50353;51.420;5.682;2023-10-31T08:22:36;99869.91;;;10.72;100.00
64095;BME280;50353;51.420;5.682;2023-10-31T08:25:02;99863.88;;;10.70;100.00
64095;BME280;50353;51.420;5.682;2023-10-31T08:27:27;99867.59;;;10.67;100.00
64095;BME280;50353;51.420;5.682;2023-10-31T08:29:53;99870.28;;;10.78;100.00
64095;BME280;50353;51.420;5.682;2023-10-31T08:32:18;99870.63;;;10.74;100.00
64095;BME280;50353;51.420;5.682;2023-10-31T08:34:43;99874.44;;;10.58;100.00
64095;BME280;50353;51.420;5.682;2023-10-31T08:37:09;99864.81;;;10.46;100.00
64095;BME280;50353;51.420;5.682;2023-10-31T08:39:34;99873.13;;;10.53;100.00
64095;BME280;50353;51.420;5.682;2023-10-31T08:41:59;99875.84;;;10.51;100.00
64095;BME280;50353;51.420;5.682;2023-10-31T08:44:25;99870.94;;;10.58;100.00
64095;BME280;50353;51.420;5.682;2023-10-31T08:46:50;99878.72;;;10.48;100.00
64095;BME280;50353;51.420;5.682;2023-10-31T08:49:16;99880.69;;;10.57;100.00
64095;BME280;50353;51.420;5.682;2023-10-31T08:51:42;99888.72;;;10.56;100.00
64095;BME280;50353;51.420;5.682;2023-10-31T08:54:08;99891.13;;;10.59;100.00
64095;BME280;50353;51.420;5.682;2023-10-31T08:56:34;99891.56;;;10.88;100.00
64095;BME280;50353;51.420;5.682;2023-10-31T08:58:59;99890.63;;;11.12;100.00
64095;BME280;50353;51.420;5.682;2023-10-31T09:01:25;99900.84;;;11.05;100.00
64095;BME280;50353;51.420;5.682;2023-10-31T09:03:51;99895.91;;;11.12;100.00
64095;BME280;50353;51.420;5.682;2023-10-31T09:06:16;99901.41;;;11.65;100.00
64095;BME280;50353;51.420;5.682;2023-10-31T09:08:42;99906.00;;;11.41;100.00
64095;BME280;50353;51.420;5.682;2023-10-31T09:11:07;99914.19;;;11.15;100.00
64095;BME280;50353;51.420;5.682;2023-10-31T09:13:32;99932.81;;;11.02;100.00
64095;BME280;50353;51.420;5.682;2023-10-31T09:15:59;99932.00;;;11.13;100.00
64095;BME280;50353;51.420;5.682;2023-10-31T09:18:24;99934.34;;;10.93;100.00
64095;BME280;50353;51.420;5.682;2023-10-31T09:20:50;99937.34;;;11.00;100.00
64095;BME280;50353;51.420;5.682;2023-10-31T09:23:15;99941.69;;;11.12;100.00
64095;BME280;50353;51.420;5.682;2023-10-31T09:25:43;99943.56;;;11.35;100.00
64095;BME280;50353;51.420;5.682;2023-10-31T09:28:08;99944.38;;;11.46;100.00
64095;BME280;50353;51.420;5.682;2023-10-31T09:30:34;99952.06;;;11.38;100.00
64095;BME280;50353;51.420;5.682;2023-10-31T09:32:59;99954.50;;;11.53;100.00
64095;BME280;50353;51.420;5.682;2023-10-31T09:35:25;99963.34;;;11.18;100.00
64095;BME280;50353;51.420;5.682;2023-10-31T09:37:51;99966.38;;;11.36;100.00
64095;BME280;50353;51.420;5.682;2023-10-31T09:40:17;99965.91;;;11.76;100.00
64095;BME280;50353;51.420;5.682;2023-10-31T09:42:44;99969.16;;;11.91;100.00
64095;BME280;50353;51.420;5.682;2023-10-31T09:45:10;99972.06;;;11.99;100.00
64095;BME280;50353;51.420;5.682;2023-10-31T09:47:36;99978.78;;;11.80;100.00
64095;BME280;50353;51.420;5.682;2023-10-31T09:50:01;99970.88;;;11.58;100.00
64095;BME280;50353;51.420;5.682;2023-10-31T09:52:26;99979.88;;;11.66;100.00
64095;BME280;50353;51.420;5.682;2023-10-31T09:54:52;99977.22;;;11.66;100.00
64095;BME280;50353;51.420;5.682;2023-10-31T09:57:18;99989.63;;;11.77;100.00
64095;BME280;50353;51.420;5.682;2023-10-31T09:59:44;99983.84;;;12.06;100.00
64095;BME280;50353;51.420;5.682;2023-10-31T10:02:09;99994.06;;;11.99;100.00
64095;BME280;50353;51.420;5.682;2023-10-31T10:04:36;99997.31;;;12.14;100.00
64095;BME280;50353;51.420;5.682;2023-10-31T10:07:02;99998.41;;;11.55;100.00
64095;BME280;50353;51.420;5.682;2023-10-31T10:09:28;99999.50;;;11.75;100.00
64095;BME280;50353;51.420;5.682;2023-10-31T10:11:55;100008.88;;;11.68;100.00
64095;BME280;50353;51.420;5.682;2023-10-31T10:14:23;100011.75;;;11.76;100.00
64095;BME280;50353;51.420;5.682;2023-10-31T10:16:48;100005.38;;;11.67;100.00
64095;BME280;50353;51.420;5.682;2023-10-31T10:19:18;100016.56;;;11.60;100.00
64095;BME280;50353;51.420;5.682;2023-10-31T10:24:13;100023.66;;;11.82;100.00
64095;BME280;50353;51.420;5.682;2023-10-31T10:26:38;100030.53;;;11.62;100.00
64095;BME280;50353;51.420;5.682;2023-10-31T10:29:03;100031.63;;;11.71;100.00
64095;BME280;50353;51.420;5.682;2023-10-31T10:31:29;100031.38;;;11.51;100.00
64095;BME280;50353;51.420;5.682;2023-10-31T10:33:54;100034.59;;;11.43;100.00
64095;BME280;50353;51.420;5.682;2023-10-31T10:36:20;100044.97;;;11.58;100.00
64095;BME280;50353;51.420;5.682;2023-10-31T10:38:48;100036.03;;;11.36;100.00
64095;BME280;50353;51.420;5.682;2023-10-31T10:41:18;100039.44;;;11.49;100.00
64095;BME280;50353;51.420;5.682;2023-10-31T10:43:46;100048.38;;;11.71;100.00
64095;BME280;50353;51.420;5.682;2023-10-31T10:46:15;100054.81;;;11.56;100.00
64095;BME280;50353;51.420;5.682;2023-10-31T10:48:45;100045.81;;;11.47;100.00
64095;BME280;50353;51.420;5.682;2023-10-31T10:51:28;100050.63;;;11.76;100.00
64095;BME280;50353;51.420;5.682;2023-10-31T10:54:01;100050.72;;;11.63;100.00
64095;BME280;50353;51.420;5.682;2023-10-31T10:56:34;100051.59;;;11.63;100.00
64095;BME280;50353;51.420;5.682;2023-10-31T10:59:07;100056.78;;;11.88;100.00
64095;BME280;50353;51.420;5.682;2023-10-31T11:01:34;100058.47;;;11.77;100.00
64095;BME280;50353;51.420;5.682;2023-10-31T11:04:01;100067.34;;;11.76;100.00
64095;BME280;50353;51.420;5.682;2023-10-31T11:06:27;100069.00;;;11.55;100.00
64095;BME280;50353;51.420;5.682;2023-10-31T11:08:55;100069.66;;;11.81;100.00
64095;BME280;50353;51.420;5.682;2023-10-31T11:11:21;100064.97;;;11.73;100.00
64095;BME280;50353;51.420;5.682;2023-10-31T11:13:49;100061.19;;;11.53;100.00
64095;BME280;50353;51.420;5.682;2023-10-31T11:16:25;100059.03;;;11.58;100.00
64095;BME280;50353;51.420;5.682;2023-10-31T11:18:52;100069.38;;;11.61;100.00
64095;BME280;50353;51.420;5.682;2023-10-31T11:21:17;100055.13;;;11.98;100.00
64095;BME280;50353;51.420;5.682;2023-10-31T11:23:44;100056.69;;;12.23;100.00
64095;BME280;50353;51.420;5.682;2023-10-31T11:26:09;100068.59;;;12.29;100.00
64095;BME280;50353;51.420;5.682;2023-10-31T11:28:35;100060.13;;;12.90;100.00
64095;BME280;50353;51.420;5.682;2023-10-31T11:31:01;100067.47;;;12.87;100.00
64095;BME280;50353;51.420;5.682;2023-10-31T11:33:28;100064.81;;;12.87;100.00
64095;BME280;50353;51.420;5.682;2023-10-31T11:36:00;100068.84;;;12.26;100.00
64095;BME280;50353;51.420;5.682;2023-10-31T11:38:35;100058.00;;;12.17;100.00
64095;BME280;50353;51.420;5.682;2023-10-31T11:41:02;100063.31;;;12.17;100.00
64095;BME280;50353;51.420;5.682;2023-10-31T11:46:05;100070.03;;;12.33;100.00
64095;BME280;50353;51.420;5.682;2023-10-31T11:49:01;100065.44;;;12.46;100.00
64095;BME280;50353;51.420;5.682;2023-10-31T11:51:27;100058.84;;;12.73;100.00
64095;BME280;50353;51.420;5.682;2023-10-31T11:53:52;100058.63;;;12.97;100.00
64095;BME280;50353;51.420;5.682;2023-10-31T11:56:19;100055.63;;;13.02;100.00
64095;BME280;50353;51.420;5.682;2023-10-31T11:58:44;100057.75;;;13.29;100.00
64095;BME280;50353;51.420;5.682;2023-10-31T12:01:19;100056.50;;;13.12;100.00
64095;BME280;50353;51.420;5.682;2023-10-31T12:03:44;100054.72;;;12.80;100.00
64095;BME280;50353;51.420;5.682;2023-10-31T12:06:13;100054.88;;;13.00;100.00
64095;BME280;50353;51.420;5.682;2023-10-31T12:08:43;100059.44;;;13.30;100.00
64095;BME280;50353;51.420;5.682;2023-10-31T12:13:37;100063.25;;;13.16;100.00
64095;BME280;50353;51.420;5.682;2023-10-31T12:16:04;100060.31;;;12.98;100.00
64095;BME280;50353;51.420;5.682;2023-10-31T12:18:30;100068.25;;;13.31;100.00
64095;BME280;50353;51.420;5.682;2023-10-31T12:20:55;100070.75;;;13.11;100.00
64095;BME280;50353;51.420;5.682;2023-10-31T12:23:21;100072.81;;;13.29;100.00
64095;BME280;50353;51.420;5.682;2023-10-31T12:25:47;100074.66;;;13.49;100.00
64095;BME280;50353;51.420;5.682;2023-10-31T12:28:17;100071.78;;;13.52;100.00
64095;BME280;50353;51.420;5.682;2023-10-31T12:30:47;100066.34;;;13.54;100.00
64095;BME280;50353;51.420;5.682;2023-10-31T12:33:13;100065.22;;;13.35;100.00
64095;BME280;50353;51.420;5.682;2023-10-31T12:35:39;100063.84;;;13.20;100.00
64095;BME280;50353;51.420;5.682;2023-10-31T12:38:05;100069.44;;;13.38;100.00
64095;BME280;50353;51.420;5.682;2023-10-31T12:40:31;100069.63;;;13.46;100.00
64095;BME280;50353;51.420;5.682;2023-10-31T12:42:57;100069.63;;;13.46;100.00
64095;BME280;50353;51.420;5.682;2023-10-31T12:45:22;100075.13;;;13.33;100.00
64095;BME280;50353;51.420;5.682;2023-10-31T12:48:04;100067.91;;;13.24;100.00